sensor_id;sensor_type;location;lat;lon;timestamp;P1;durP1;ratioP1;P2;durP2;ratioP2
50681;SDS011;36779;52.168;20.878;2023-02-15T00:01:52;61.60;;;23.40;;
50681;SDS011;36779;52.168;20.878;2023-02-15T00:04:22;55.30;;;21.50;;
50681;SDS011;36779;52.168;20.878;2023-02-15T00:07:14;61.70;;;22.50;;
50681;SDS011;36779;52.168;20.878;2023-02-15T00:09:47;62.80;;;21.30;;
50681;SDS011;36779;52.168;20.878;2023-02-15T00:12:17;59.90;;;20.20;;
50681;SDS011;36779;52.168;20.878;2023-02-15T00:14:48;54.60;;;18.60;;
50681;SDS011;36779;52.168;20.878;2023-02-15T00:17:17;56.50;;;19.70;;
50681;SDS011;36779;52.168;20.878;2023-02-15T00:19:48;62.90;;;20.10;;
50681;SDS011;36779;52.168;20.878;2023-02-15T00:22:17;56.00;;;21.60;;
50681;SDS011;36779;52.168;20.878;2023-02-15T00:24:48;55.80;;;20.90;;
50681;SDS011;36779;52.168;20.878;2023-02-15T00:27:18;57.70;;;20.50;;
50681;SDS011;36779;52.168;20.878;2023-02-15T00:29:47;57.40;;;22.00;;
50681;SDS011;36779;52.168;20.878;2023-02-15T00:32:17;54.00;;;20.30;;
50681;SDS011;36779;52.168;20.878;2023-02-15T00:34:49;58.00;;;21.50;;
50681;SDS011;36779;52.168;20.878;2023-02-15T00:37:18;58.50;;;20.20;;
50681;SDS011;36779;52.168;20.878;2023-02-15T00:39:47;56.90;;;21.80;;
50681;SDS011;36779;52.168;20.878;2023-02-15T00:42:18;60.10;;;21.00;;
50681;SDS011;36779;52.168;20.878;2023-02-15T00:44:49;66.10;;;21.40;;
50681;SDS011;36779;52.168;20.878;2023-02-15T00:47:18;62.20;;;21.20;;
50681;SDS011;36779;52.168;20.878;2023-02-15T00:49:48;54.00;;;20.70;;
50681;SDS011;36779;52.168;20.878;2023-02-15T00:52:17;55.00;;;19.90;;
50681;SDS011;36779;52.168;20.878;2023-02-15T00:54:49;56.90;;;21.00;;
50681;SDS011;36779;52.168;20.878;2023-02-15T00:57:18;56.80;;;20.80;;
50681;SDS011;36779;52.168;20.878;2023-02-15T00:59:48;56.50;;;20.30;;
50681;SDS011;36779;52.168;20.878;2023-02-15T01:02:20;55.80;;;20.90;;
50681;SDS011;36779;52.168;20.878;2023-02-15T01:04:49;58.90;;;20.00;;
50681;SDS011;36779;52.168;20.878;2023-02-15T01:07:18;56.40;;;20.30;;
50681;SDS011;36779;52.168;20.878;2023-02-15T01:09:48;59.10;;;19.40;;
50681;SDS011;36779;52.168;20.878;2023-02-15T01:12:17;58.10;;;19.70;;
50681;SDS011;36779;52.168;20.878;2023-02-15T01:14:48;61.10;;;20.90;;
50681;SDS011;36779;52.168;20.878;2023-02-15T01:17:19;61.80;;;22.30;;
50681;SDS011;36779;52.168;20.878;2023-02-15T01:19:48;58.30;;;21.60;;
50681;SDS011;36779;52.168;20.878;2023-02-15T01:22:21;59.10;;;21.90;;
50681;SDS011;36779;52.168;20.878;2023-02-15T01:24:50;59.60;;;20.90;;
50681;SDS011;36779;52.168;20.878;2023-02-15T01:27:19;51.70;;;19.60;;
50681;SDS011;36779;52.168;20.878;2023-02-15T01:29:47;54.10;;;19.20;;
50681;SDS011;36779;52.168;20.878;2023-02-15T01:32:17;51.90;;;19.20;;
50681;SDS011;36779;52.168;20.878;2023-02-15T01:34:47;56.10;;;20.10;;
50681;SDS011;36779;52.168;20.878;2023-02-15T01:37:19;56.80;;;20.70;;
50681;SDS011;36779;52.168;20.878;2023-02-15T01:39:50;55.70;;;20.70;;
50681;SDS011;36779;52.168;20.878;2023-02-15T01:42:21;57.00;;;20.00;;
50681;SDS011;36779;52.168;20.878;2023-02-15T01:44:52;58.60;;;20.00;;
50681;SDS011;36779;52.168;20.878;2023-02-15T01:47:24;60.60;;;20.60;;
50681;SDS011;36779;52.168;20.878;2023-02-15T01:50:05;50.50;;;19.50;;
50681;SDS011;36779;52.168;20.878;2023-02-15T01:52:40;48.60;;;18.00;;
50681;SDS011;36779;52.168;20.878;2023-02-15T01:55:14;49.70;;;18.40;;
50681;SDS011;36779;52.168;20.878;2023-02-15T01:57:43;50.40;;;18.90;;
50681;SDS011;36779;52.168;20.878;2023-02-15T02:00:19;51.20;;;18.70;;
50681;SDS011;36779;52.168;20.878;2023-02-15T02:02:49;51.90;;;18.00;;
50681;SDS011;36779;52.168;20.878;2023-02-15T02:05:25;55.20;;;19.30;;
50681;SDS011;36779;52.168;20.878;2023-02-15T02:07:54;49.80;;;18.60;;
50681;SDS011;36779;52.168;20.878;2023-02-15T02:10:28;55.00;;;18.90;;
50681;SDS011;36779;52.168;20.878;2023-02-15T02:12:59;44.60;;;17.60;;
50681;SDS011;36779;52.168;20.878;2023-02-15T02:15:33;47.40;;;18.20;;
50681;SDS011;36779;52.168;20.878;2023-02-15T02:18:21;47.70;;;17.50;;
50681;SDS011;36779;52.168;20.878;2023-02-15T02:23:51;49.80;;;17.20;;
50681;SDS011;36779;52.168;20.878;2023-02-15T02:30:04;48.50;;;16.50;;
50681;SDS011;36779;52.168;20.878;2023-02-15T02:35:56;50.50;;;19.10;;
50681;SDS011;36779;52.168;20.878;2023-02-15T02:38:35;52.40;;;18.20;;
50681;SDS011;36779;52.168;20.878;2023-02-15T02:41:15;51.40;;;18.60;;
50681;SDS011;36779;52.168;20.878;2023-02-15T02:43:52;47.50;;;17.80;;
50681;SDS011;36779;52.168;20.878;2023-02-15T02:46:32;54.30;;;18.40;;
50681;SDS011;36779;52.168;20.878;2023-02-15T02:49:04;54.90;;;19.70;;
50681;SDS011;36779;52.168;20.878;2023-02-15T02:51:33;51.70;;;18.10;;
50681;SDS011;36779;52.168;20.878;2023-02-15T02:54:03;52.20;;;18.60;;
50681;SDS011;36779;52.168;20.878;2023-02-15T02:56:35;46.90;;;17.70;;
50681;SDS011;36779;52.168;20.878;2023-02-15T02:59:09;50.60;;;17.10;;
50681;SDS011;36779;52.168;20.878;2023-02-15T03:01:44;43.80;;;17.10;;
50681;SDS011;36779;52.168;20.878;2023-02-15T03:04:20;45.70;;;17.00;;
50681;SDS011;36779;52.168;20.878;2023-02-15T03:06:54;48.90;;;16.50;;
50681;SDS011;36779;52.168;20.878;2023-02-15T03:09:28;48.70;;;17.90;;
50681;SDS011;36779;52.168;20.878;2023-02-15T03:12:09;49.30;;;17.80;;
50681;SDS011;36779;52.168;20.878;2023-02-15T03:14:44;48.60;;;16.50;;
50681;SDS011;36779;52.168;20.878;2023-02-15T03:17:20;46.40;;;16.70;;
50681;SDS011;36779;52.168;20.878;2023-02-15T03:19:51;46.60;;;16.30;;
50681;SDS011;36779;52.168;20.878;2023-02-15T03:22:25;44.90;;;16.60;;
50681;SDS011;36779;52.168;20.878;2023-02-15T03:24:58;42.60;;;16.20;;
50681;SDS011;36779;52.168;20.878;2023-02-15T03:27:35;48.90;;;15.90;;
50681;SDS011;36779;52.168;20.878;2023-02-15T03:30:09;42.50;;;15.50;;
50681;SDS011;36779;52.168;20.878;2023-02-15T03:32:41;41.80;;;15.60;;
50681;SDS011;36779;52.168;20.878;2023-02-15T03:35:14;43.00;;;16.40;;
50681;SDS011;36779;52.168;20.878;2023-02-15T03:37:49;46.30;;;17.40;;
50681;SDS011;36779;52.168;20.878;2023-02-15T03:40:23;46.70;;;16.60;;
50681;SDS011;36779;52.168;20.878;2023-02-15T03:43:20;47.80;;;16.80;;
50681;SDS011;36779;52.168;20.878;2023-02-15T03:45:56;42.90;;;15.60;;
50681;SDS011;36779;52.168;20.878;2023-02-15T03:48:35;41.10;;;15.60;;
50681;SDS011;36779;52.168;20.878;2023-02-15T03:51:07;47.20;;;16.40;;
50681;SDS011;36779;52.168;20.878;2023-02-15T03:53:58;45.20;;;15.90;;
50681;SDS011;36779;52.168;20.878;2023-02-15T03:56:29;38.80;;;14.40;;
50681;SDS011;36779;52.168;20.878;2023-02-15T03:58:58;42.10;;;14.70;;
50681;SDS011;36779;52.168;20.878;2023-02-15T04:01:48;42.90;;;15.00;;
50681;SDS011;36779;52.168;20.878;2023-02-15T04:04:32;40.90;;;15.50;;
50681;SDS011;36779;52.168;20.878;2023-02-15T04:07:05;38.70;;;14.80;;
50681;SDS011;36779;52.168;20.878;2023-02-15T04:09:35;42.20;;;15.60;;
50681;SDS011;36779;52.168;20.878;2023-02-15T04:12:23;38.10;;;15.10;;
50681;SDS011;36779;52.168;20.878;2023-02-15T04:14:57;41.10;;;14.30;;
50681;SDS011;36779;52.168;20.878;2023-02-15T04:17:44;21.30;;;8.90;;
50681;SDS011;36779;52.168;20.878;2023-02-15T04:20:14;31.00;;;11.50;;
50681;SDS011;36779;52.168;20.878;2023-02-15T04:23:03;32.10;;;11.50;;
50681;SDS011;36779;52.168;20.878;2023-02-15T04:25:54;28.40;;;11.60;;
50681;SDS011;36779;52.168;20.878;2023-02-15T04:28:23;31.60;;;13.10;;
50681;SDS011;36779;52.168;20.878;2023-02-15T04:30:52;35.10;;;13.00;;
50681;SDS011;36779;52.168;20.878;2023-02-15T04:33:21;30.90;;;12.70;;
50681;SDS011;36779;52.168;20.878;2023-02-15T04:35:49;31.90;;;12.20;;
50681;SDS011;36779;52.168;20.878;2023-02-15T04:38:20;28.20;;;11.10;;
50681;SDS011;36779;52.168;20.878;2023-02-15T04:40:50;35.50;;;12.90;;
50681;SDS011;36779;52.168;20.878;2023-02-15T04:43:19;29.50;;;12.10;;
50681;SDS011;36779;52.168;20.878;2023-02-15T04:45:48;34.10;;;12.60;;
50681;SDS011;36779;52.168;20.878;2023-02-15T04:48:17;28.20;;;12.30;;
50681;SDS011;36779;52.168;20.878;2023-02-15T04:50:47;32.80;;;12.80;;
50681;SDS011;36779;52.168;20.878;2023-02-15T04:53:19;37.40;;;14.80;;
50681;SDS011;36779;52.168;20.878;2023-02-15T04:55:48;36.40;;;15.10;;
50681;SDS011;36779;52.168;20.878;2023-02-15T04:58:18;32.30;;;14.10;;
50681;SDS011;36779;52.168;20.878;2023-02-15T05:00:47;33.00;;;13.40;;
50681;SDS011;36779;52.168;20.878;2023-02-15T05:03:17;28.50;;;11.80;;
50681;SDS011;36779;52.168;20.878;2023-02-15T05:05:46;32.70;;;12.10;;
50681;SDS011;36779;52.168;20.878;2023-02-15T05:08:15;35.30;;;13.10;;
50681;SDS011;36779;52.168;20.878;2023-02-15T05:10:45;37.80;;;14.20;;
50681;SDS011;36779;52.168;20.878;2023-02-15T05:13:16;31.30;;;12.80;;
50681;SDS011;36779;52.168;20.878;2023-02-15T05:15:49;41.80;;;14.80;;
50681;SDS011;36779;52.168;20.878;2023-02-15T05:18:20;37.10;;;14.20;;
50681;SDS011;36779;52.168;20.878;2023-02-15T05:20:52;33.70;;;13.40;;
50681;SDS011;36779;52.168;20.878;2023-02-15T05:23:21;33.50;;;13.50;;
50681;SDS011;36779;52.168;20.878;2023-02-15T05:25:52;37.80;;;13.80;;
50681;SDS011;36779;52.168;20.878;2023-02-15T05:28:39;31.80;;;13.00;;
50681;SDS011;36779;52.168;20.878;2023-02-15T05:31:11;41.10;;;15.00;;
50681;SDS011;36779;52.168;20.878;2023-02-15T05:33:43;33.60;;;13.40;;
50681;SDS011;36779;52.168;20.878;2023-02-15T05:36:14;33.70;;;13.70;;
50681;SDS011;36779;52.168;20.878;2023-02-15T05:38:43;38.10;;;12.70;;
50681;SDS011;36779;52.168;20.878;2023-02-15T05:41:18;40.40;;;14.50;;
50681;SDS011;36779;52.168;20.878;2023-02-15T05:43:47;38.00;;;14.10;;
50681;SDS011;36779;52.168;20.878;2023-02-15T05:46:17;32.70;;;12.50;;
50681;SDS011;36779;52.168;20.878;2023-02-15T05:48:48;33.70;;;13.60;;
50681;SDS011;36779;52.168;20.878;2023-02-15T05:51:17;34.60;;;12.90;;
50681;SDS011;36779;52.168;20.878;2023-02-15T05:53:47;32.80;;;13.10;;
50681;SDS011;36779;52.168;20.878;2023-02-15T05:56:16;33.40;;;12.90;;
50681;SDS011;36779;52.168;20.878;2023-02-15T05:58:45;28.10;;;11.60;;
50681;SDS011;36779;52.168;20.878;2023-02-15T06:01:15;33.60;;;12.30;;
50681;SDS011;36779;52.168;20.878;2023-02-15T06:03:47;33.40;;;12.50;;
50681;SDS011;36779;52.168;20.878;2023-02-15T06:06:16;31.20;;;12.50;;
50681;SDS011;36779;52.168;20.878;2023-02-15T06:08:47;31.50;;;11.80;;
50681;SDS011;36779;52.168;20.878;2023-02-15T06:11:17;36.20;;;13.70;;
50681;SDS011;36779;52.168;20.878;2023-02-15T06:13:49;31.90;;;12.00;;
50681;SDS011;36779;52.168;20.878;2023-02-15T06:16:18;33.50;;;11.70;;
50681;SDS011;36779;52.168;20.878;2023-02-15T06:18:47;32.50;;;12.90;;
50681;SDS011;36779;52.168;20.878;2023-02-15T06:21:20;34.50;;;12.50;;
50681;SDS011;36779;52.168;20.878;2023-02-15T06:23:49;31.40;;;12.00;;
50681;SDS011;36779;52.168;20.878;2023-02-15T06:26:18;34.50;;;11.80;;
50681;SDS011;36779;52.168;20.878;2023-02-15T06:28:47;32.20;;;11.60;;
50681;SDS011;36779;52.168;20.878;2023-02-15T06:31:16;29.40;;;10.70;;
50681;SDS011;36779;52.168;20.878;2023-02-15T06:33:48;34.60;;;11.30;;
50681;SDS011;36779;52.168;20.878;2023-02-15T06:36:17;28.70;;;11.60;;
50681;SDS011;36779;52.168;20.878;2023-02-15T06:38:47;31.40;;;12.80;;
50681;SDS011;36779;52.168;20.878;2023-02-15T06:41:17;42.10;;;14.60;;
50681;SDS011;36779;52.168;20.878;2023-02-15T06:43:48;36.80;;;12.20;;
50681;SDS011;36779;52.168;20.878;2023-02-15T06:46:17;39.10;;;12.30;;
50681;SDS011;36779;52.168;20.878;2023-02-15T06:48:48;42.10;;;12.90;;
50681;SDS011;36779;52.168;20.878;2023-02-15T06:51:21;34.70;;;11.80;;
50681;SDS011;36779;52.168;20.878;2023-02-15T06:53:51;35.10;;;12.30;;
50681;SDS011;36779;52.168;20.878;2023-02-15T06:56:21;36.80;;;12.40;;
50681;SDS011;36779;52.168;20.878;2023-02-15T06:58:50;30.80;;;11.60;;
50681;SDS011;36779;52.168;20.878;2023-02-15T07:01:20;35.20;;;10.80;;
50681;SDS011;36779;52.168;20.878;2023-02-15T07:03:50;32.50;;;11.30;;
50681;SDS011;36779;52.168;20.878;2023-02-15T07:06:19;25.80;;;9.70;;
50681;SDS011;36779;52.168;20.878;2023-02-15T07:08:49;37.50;;;10.80;;
50681;SDS011;36779;52.168;20.878;2023-02-15T07:11:18;34.30;;;11.50;;
50681;SDS011;36779;52.168;20.878;2023-02-15T07:14:06;31.60;;;11.20;;
50681;SDS011;36779;52.168;20.878;2023-02-15T07:16:35;30.40;;;10.50;;
50681;SDS011;36779;52.168;20.878;2023-02-15T07:19:07;28.80;;;10.20;;
50681;SDS011;36779;52.168;20.878;2023-02-15T07:21:38;35.80;;;11.80;;
50681;SDS011;36779;52.168;20.878;2023-02-15T07:24:13;32.80;;;10.50;;
50681;SDS011;36779;52.168;20.878;2023-02-15T07:26:48;32.80;;;10.80;;
50681;SDS011;36779;52.168;20.878;2023-02-15T07:29:20;29.60;;;10.10;;
50681;SDS011;36779;52.168;20.878;2023-02-15T07:31:51;28.50;;;10.80;;
50681;SDS011;36779;52.168;20.878;2023-02-15T07:34:20;26.90;;;10.70;;
50681;SDS011;36779;52.168;20.878;2023-02-15T07:36:50;26.20;;;9.60;;
50681;SDS011;36779;52.168;20.878;2023-02-15T07:39:20;23.90;;;9.10;;
50681;SDS011;36779;52.168;20.878;2023-02-15T07:41:49;26.60;;;8.90;;
50681;SDS011;36779;52.168;20.878;2023-02-15T07:44:19;27.00;;;8.80;;
50681;SDS011;36779;52.168;20.878;2023-02-15T07:46:48;23.60;;;8.40;;
50681;SDS011;36779;52.168;20.878;2023-02-15T07:49:17;24.90;;;10.10;;
50681;SDS011;36779;52.168;20.878;2023-02-15T07:51:47;24.90;;;8.90;;
50681;SDS011;36779;52.168;20.878;2023-02-15T07:54:16;28.30;;;10.40;;
50681;SDS011;36779;52.168;20.878;2023-02-15T07:56:45;26.50;;;8.90;;
50681;SDS011;36779;52.168;20.878;2023-02-15T07:59:15;24.80;;;9.40;;
50681;SDS011;36779;52.168;20.878;2023-02-15T08:01:44;24.00;;;8.80;;
50681;SDS011;36779;52.168;20.878;2023-02-15T08:04:14;26.40;;;10.20;;
50681;SDS011;36779;52.168;20.878;2023-02-15T08:06:46;29.10;;;10.20;;
50681;SDS011;36779;52.168;20.878;2023-02-15T08:09:15;27.10;;;9.60;;
50681;SDS011;36779;52.168;20.878;2023-02-15T08:11:47;29.80;;;9.40;;
50681;SDS011;36779;52.168;20.878;2023-02-15T08:14:17;27.10;;;9.60;;
50681;SDS011;36779;52.168;20.878;2023-02-15T08:16:48;26.20;;;9.80;;
50681;SDS011;36779;52.168;20.878;2023-02-15T08:19:20;38.00;;;10.90;;
50681;SDS011;36779;52.168;20.878;2023-02-15T08:21:51;33.10;;;11.10;;
50681;SDS011;36779;52.168;20.878;2023-02-15T08:24:22;34.40;;;10.90;;
50681;SDS011;36779;52.168;20.878;2023-02-15T08:26:53;27.40;;;9.90;;
50681;SDS011;36779;52.168;20.878;2023-02-15T08:29:23;25.70;;;9.20;;
50681;SDS011;36779;52.168;20.878;2023-02-15T08:31:54;26.50;;;9.80;;
50681;SDS011;36779;52.168;20.878;2023-02-15T08:34:25;30.40;;;9.50;;
50681;SDS011;36779;52.168;20.878;2023-02-15T08:36:55;26.70;;;8.90;;
50681;SDS011;36779;52.168;20.878;2023-02-15T08:39:24;24.90;;;8.30;;
50681;SDS011;36779;52.168;20.878;2023-02-15T08:41:54;27.50;;;9.20;;
50681;SDS011;36779;52.168;20.878;2023-02-15T08:44:23;28.90;;;9.00;;
50681;SDS011;36779;52.168;20.878;2023-02-15T08:46:52;29.40;;;9.30;;
50681;SDS011;36779;52.168;20.878;2023-02-15T08:49:22;29.10;;;9.10;;
50681;SDS011;36779;52.168;20.878;2023-02-15T08:51:51;26.50;;;8.60;;
50681;SDS011;36779;52.168;20.878;2023-02-15T08:54:20;27.50;;;8.90;;
50681;SDS011;36779;52.168;20.878;2023-02-15T08:56:51;22.40;;;8.50;;
50681;SDS011;36779;52.168;20.878;2023-02-15T08:59:21;23.90;;;9.80;;
50681;SDS011;36779;52.168;20.878;2023-02-15T09:01:51;26.10;;;8.80;;
50681;SDS011;36779;52.168;20.878;2023-02-15T09:04:20;28.70;;;9.30;;
50681;SDS011;36779;52.168;20.878;2023-02-15T09:06:50;31.50;;;10.10;;
50681;SDS011;36779;52.168;20.878;2023-02-15T09:09:20;25.00;;;8.60;;
50681;SDS011;36779;52.168;20.878;2023-02-15T09:11:50;36.00;;;11.70;;
50681;SDS011;36779;52.168;20.878;2023-02-15T09:14:26;36.80;;;12.30;;
50681;SDS011;36779;52.168;20.878;2023-02-15T09:16:55;33.90;;;12.70;;
50681;SDS011;36779;52.168;20.878;2023-02-15T09:19:24;30.50;;;11.10;;
50681;SDS011;36779;52.168;20.878;2023-02-15T09:21:53;33.60;;;12.10;;
50681;SDS011;36779;52.168;20.878;2023-02-15T09:24:24;34.60;;;11.20;;
50681;SDS011;36779;52.168;20.878;2023-02-15T09:26:53;31.10;;;11.80;;
50681;SDS011;36779;52.168;20.878;2023-02-15T09:29:22;35.30;;;11.00;;
50681;SDS011;36779;52.168;20.878;2023-02-15T09:31:51;29.40;;;11.00;;
50681;SDS011;36779;52.168;20.878;2023-02-15T09:34:21;38.30;;;13.10;;
50681;SDS011;36779;52.168;20.878;2023-02-15T09:36:50;30.20;;;11.80;;
50681;SDS011;36779;52.168;20.878;2023-02-15T09:39:21;30.80;;;10.00;;
50681;SDS011;36779;52.168;20.878;2023-02-15T09:41:56;34.70;;;12.60;;
50681;SDS011;36779;52.168;20.878;2023-02-15T09:47:49;35.00;;;11.70;;
50681;SDS011;36779;52.168;20.878;2023-02-15T09:50:44;30.20;;;11.50;;
50681;SDS011;36779;52.168;20.878;2023-02-15T09:53:28;30.90;;;11.30;;
50681;SDS011;36779;52.168;20.878;2023-02-15T09:56:06;29.40;;;10.80;;
50681;SDS011;36779;52.168;20.878;2023-02-15T09:58:46;28.30;;;9.40;;
50681;SDS011;36779;52.168;20.878;2023-02-15T10:01:25;23.90;;;8.90;;
50681;SDS011;36779;52.168;20.878;2023-02-15T10:04:11;27.90;;;10.30;;
50681;SDS011;36779;52.168;20.878;2023-02-15T10:07:00;30.10;;;9.60;;
50681;SDS011;36779;52.168;20.878;2023-02-15T10:09:41;29.30;;;10.50;;
50681;SDS011;36779;52.168;20.878;2023-02-15T10:12:22;24.70;;;9.30;;
50681;SDS011;36779;52.168;20.878;2023-02-15T10:15:19;29.10;;;9.50;;
50681;SDS011;36779;52.168;20.878;2023-02-15T10:17:59;22.70;;;8.30;;
50681;SDS011;36779;52.168;20.878;2023-02-15T10:20:40;24.20;;;9.60;;
50681;SDS011;36779;52.168;20.878;2023-02-15T10:23:28;25.50;;;9.40;;
50681;SDS011;36779;52.168;20.878;2023-02-15T10:26:11;26.20;;;10.10;;
50681;SDS011;36779;52.168;20.878;2023-02-15T10:28:47;29.00;;;10.20;;
50681;SDS011;36779;52.168;20.878;2023-02-15T10:31:23;51.50;;;16.40;;
50681;SDS011;36779;52.168;20.878;2023-02-15T10:34:02;29.80;;;11.30;;
50681;SDS011;36779;52.168;20.878;2023-02-15T10:36:56;36.70;;;12.80;;
50681;SDS011;36779;52.168;20.878;2023-02-15T10:39:43;26.00;;;10.20;;
50681;SDS011;36779;52.168;20.878;2023-02-15T10:42:25;26.50;;;10.00;;
50681;SDS011;36779;52.168;20.878;2023-02-15T10:45:09;31.30;;;11.40;;
50681;SDS011;36779;52.168;20.878;2023-02-15T10:47:57;36.30;;;12.70;;
50681;SDS011;36779;52.168;20.878;2023-02-15T10:50:42;33.50;;;12.40;;
50681;SDS011;36779;52.168;20.878;2023-02-15T10:53:28;32.20;;;11.90;;
50681;SDS011;36779;52.168;20.878;2023-02-15T10:56:09;29.30;;;11.90;;
50681;SDS011;36779;52.168;20.878;2023-02-15T10:59:01;27.00;;;10.80;;
50681;SDS011;36779;52.168;20.878;2023-02-15T11:01:48;27.80;;;10.90;;
50681;SDS011;36779;52.168;20.878;2023-02-15T11:07:17;24.20;;;10.00;;
50681;SDS011;36779;52.168;20.878;2023-02-15T11:09:51;26.70;;;10.80;;
50681;SDS011;36779;52.168;20.878;2023-02-15T11:12:28;30.30;;;11.60;;
50681;SDS011;36779;52.168;20.878;2023-02-15T11:15:01;40.20;;;20.10;;
50681;SDS011;36779;52.168;20.878;2023-02-15T11:17:40;31.50;;;12.80;;
50681;SDS011;36779;52.168;20.878;2023-02-15T11:20:16;27.30;;;10.40;;
50681;SDS011;36779;52.168;20.878;2023-02-15T11:22:51;31.60;;;12.10;;
50681;SDS011;36779;52.168;20.878;2023-02-15T11:25:22;35.90;;;12.80;;
50681;SDS011;36779;52.168;20.878;2023-02-15T11:27:53;31.00;;;12.10;;
50681;SDS011;36779;52.168;20.878;2023-02-15T11:30:24;35.20;;;12.00;;
50681;SDS011;36779;52.168;20.878;2023-02-15T11:32:57;44.30;;;13.60;;
50681;SDS011;36779;52.168;20.878;2023-02-15T11:35:35;42.20;;;13.60;;
50681;SDS011;36779;52.168;20.878;2023-02-15T11:38:28;44.80;;;14.30;;
50681;SDS011;36779;52.168;20.878;2023-02-15T11:41:01;41.60;;;13.70;;
50681;SDS011;36779;52.168;20.878;2023-02-15T11:43:35;44.20;;;15.20;;
50681;SDS011;36779;52.168;20.878;2023-02-15T11:46:08;41.70;;;15.60;;
50681;SDS011;36779;52.168;20.878;2023-02-15T11:48:40;45.90;;;16.20;;
50681;SDS011;36779;52.168;20.878;2023-02-15T11:51:11;39.10;;;14.10;;
50681;SDS011;36779;52.168;20.878;2023-02-15T11:53:48;44.20;;;15.20;;
50681;SDS011;36779;52.168;20.878;2023-02-15T11:56:20;48.60;;;16.70;;
50681;SDS011;36779;52.168;20.878;2023-02-15T11:58:52;51.30;;;16.80;;
50681;SDS011;36779;52.168;20.878;2023-02-15T12:01:28;42.90;;;15.80;;
50681;SDS011;36779;52.168;20.878;2023-02-15T12:04:04;52.90;;;17.90;;
50681;SDS011;36779;52.168;20.878;2023-02-15T12:06:37;49.10;;;16.30;;
50681;SDS011;36779;52.168;20.878;2023-02-15T12:09:16;51.60;;;17.00;;
50681;SDS011;36779;52.168;20.878;2023-02-15T12:11:51;49.20;;;16.30;;
50681;SDS011;36779;52.168;20.878;2023-02-15T12:14:20;69.90;;;23.50;;
50681;SDS011;36779;52.168;20.878;2023-02-15T12:16:50;47.00;;;16.40;;
50681;SDS011;36779;52.168;20.878;2023-02-15T12:19:28;55.20;;;17.70;;
50681;SDS011;36779;52.168;20.878;2023-02-15T12:22:01;43.60;;;14.80;;
50681;SDS011;36779;52.168;20.878;2023-02-15T12:24:34;43.40;;;16.40;;
50681;SDS011;36779;52.168;20.878;2023-02-15T12:27:13;49.70;;;16.40;;
50681;SDS011;36779;52.168;20.878;2023-02-15T12:32:18;43.60;;;14.40;;
50681;SDS011;36779;52.168;20.878;2023-02-15T12:34:51;40.40;;;14.50;;
50681;SDS011;36779;52.168;20.878;2023-02-15T12:37:23;36.60;;;13.20;;
50681;SDS011;36779;52.168;20.878;2023-02-15T12:39:56;39.60;;;12.80;;
50681;SDS011;36779;52.168;20.878;2023-02-15T12:42:27;47.20;;;16.60;;
50681;SDS011;36779;52.168;20.878;2023-02-15T12:45:20;50.00;;;16.50;;
50681;SDS011;36779;52.168;20.878;2023-02-15T12:48:14;40.80;;;15.10;;
50681;SDS011;36779;52.168;20.878;2023-02-15T12:50:45;48.80;;;16.10;;
50681;SDS011;36779;52.168;20.878;2023-02-15T12:53:30;54.10;;;19.30;;
50681;SDS011;36779;52.168;20.878;2023-02-15T12:56:01;58.00;;;18.00;;
50681;SDS011;36779;52.168;20.878;2023-02-15T12:58:35;60.60;;;19.70;;
50681;SDS011;36779;52.168;20.878;2023-02-15T13:01:10;53.10;;;17.40;;
50681;SDS011;36779;52.168;20.878;2023-02-15T13:03:54;64.50;;;20.60;;
50681;SDS011;36779;52.168;20.878;2023-02-15T13:06:25;77.80;;;20.80;;
50681;SDS011;36779;52.168;20.878;2023-02-15T13:08:57;47.10;;;16.00;;
50681;SDS011;36779;52.168;20.878;2023-02-15T13:11:34;53.80;;;15.80;;
50681;SDS011;36779;52.168;20.878;2023-02-15T13:14:17;62.90;;;19.20;;
50681;SDS011;36779;52.168;20.878;2023-02-15T13:16:50;55.70;;;17.70;;
50681;SDS011;36779;52.168;20.878;2023-02-15T13:19:29;53.70;;;15.80;;
50681;SDS011;36779;52.168;20.878;2023-02-15T13:22:02;53.40;;;16.50;;
50681;SDS011;36779;52.168;20.878;2023-02-15T13:24:36;58.80;;;17.10;;
50681;SDS011;36779;52.168;20.878;2023-02-15T13:27:12;92.00;;;23.10;;
50681;SDS011;36779;52.168;20.878;2023-02-15T13:29:44;63.10;;;20.30;;
50681;SDS011;36779;52.168;20.878;2023-02-15T13:32:24;47.00;;;16.00;;
50681;SDS011;36779;52.168;20.878;2023-02-15T13:34:57;48.60;;;16.20;;
50681;SDS011;36779;52.168;20.878;2023-02-15T13:40:25;49.60;;;15.60;;
50681;SDS011;36779;52.168;20.878;2023-02-15T13:43:04;44.30;;;14.00;;
50681;SDS011;36779;52.168;20.878;2023-02-15T13:45:46;47.70;;;15.90;;
50681;SDS011;36779;52.168;20.878;2023-02-15T13:48:29;34.00;;;12.80;;
50681;SDS011;36779;52.168;20.878;2023-02-15T13:51:19;43.20;;;15.00;;
50681;SDS011;36779;52.168;20.878;2023-02-15T13:54:01;49.30;;;17.10;;
50681;SDS011;36779;52.168;20.878;2023-02-15T13:56:50;52.40;;;17.40;;
50681;SDS011;36779;52.168;20.878;2023-02-15T14:02:38;55.80;;;17.60;;
50681;SDS011;36779;52.168;20.878;2023-02-15T14:05:28;58.90;;;17.80;;
50681;SDS011;36779;52.168;20.878;2023-02-15T14:08:10;57.70;;;19.10;;
50681;SDS011;36779;52.168;20.878;2023-02-15T14:10:52;62.90;;;19.90;;
50681;SDS011;36779;52.168;20.878;2023-02-15T14:13:33;57.50;;;19.60;;
50681;SDS011;36779;52.168;20.878;2023-02-15T14:16:16;55.60;;;18.50;;
50681;SDS011;36779;52.168;20.878;2023-02-15T14:18:58;51.00;;;16.80;;
50681;SDS011;36779;52.168;20.878;2023-02-15T14:21:34;55.50;;;18.20;;
50681;SDS011;36779;52.168;20.878;2023-02-15T14:24:15;53.90;;;17.60;;
50681;SDS011;36779;52.168;20.878;2023-02-15T14:26:58;51.70;;;17.30;;
50681;SDS011;36779;52.168;20.878;2023-02-15T14:29:49;59.30;;;17.90;;
50681;SDS011;36779;52.168;20.878;2023-02-15T14:32:27;46.50;;;16.10;;
50681;SDS011;36779;52.168;20.878;2023-02-15T14:35:01;59.40;;;18.20;;
50681;SDS011;36779;52.168;20.878;2023-02-15T14:37:43;57.00;;;19.00;;
50681;SDS011;36779;52.168;20.878;2023-02-15T14:40:27;59.00;;;18.00;;
50681;SDS011;36779;52.168;20.878;2023-02-15T14:43:27;59.90;;;19.90;;
50681;SDS011;36779;52.168;20.878;2023-02-15T14:46:18;74.10;;;19.50;;
50681;SDS011;36779;52.168;20.878;2023-02-15T14:49:06;58.70;;;18.70;;
50681;SDS011;36779;52.168;20.878;2023-02-15T14:51:55;55.80;;;16.60;;
50681;SDS011;36779;52.168;20.878;2023-02-15T14:57:26;61.30;;;19.60;;
50681;SDS011;36779;52.168;20.878;2023-02-15T15:03:00;55.00;;;18.20;;
50681;SDS011;36779;52.168;20.878;2023-02-15T15:05:45;49.80;;;15.10;;
50681;SDS011;36779;52.168;20.878;2023-02-15T15:08:22;45.50;;;13.60;;
50681;SDS011;36779;52.168;20.878;2023-02-15T15:10:57;35.20;;;12.00;;
50681;SDS011;36779;52.168;20.878;2023-02-15T15:17:09;40.30;;;13.30;;
50681;SDS011;36779;52.168;20.878;2023-02-15T15:22:41;41.60;;;14.40;;
50681;SDS011;36779;52.168;20.878;2023-02-15T15:25:12;46.60;;;14.40;;
50681;SDS011;36779;52.168;20.878;2023-02-15T15:31:16;40.10;;;12.90;;
50681;SDS011;36779;52.168;20.878;2023-02-15T15:34:06;39.00;;;13.10;;